Wetterdaten: Woche 30.11.20 - 06.12.20 (KW49)
Datum Zeit Temp. A. Feuchte A. Luftdruck Regen Wind Richtung Taupunkt Windchill Windben
30.11.2020 00:00 3,3 C 71 % 1024,2 hPa 0,0 l/m 2,0 km/h N -1,4 C 3,3 C 11,7 km/h
30.11.2020 01:00 3,4 C 72 % 1024,3 hPa 0,0 l/m 2,4 km/h N -1,2 C 3,4 C 12,9 km/h
30.11.2020 02:00 3,4 C 72 % 1024,4 hPa 0,0 l/m 2,1 km/h N -1,2 C 3,4 C 14,5 km/h
30.11.2020 03:00 3,2 C 72 % 1024,4 hPa 0,0 l/m 0,9 km/h N -1,3 C 3,2 C 10,1 km/h
30.11.2020 04:00 3,2 C 73 % 1024,8 hPa 0,0 l/m 1,0 km/h N -1,2 C 3,2 C 4,8 km/h
30.11.2020 05:00 3,2 C 72 % 1025,3 hPa 0,0 l/m 2,7 km/h N -1,3 C 3,2 C 10,1 km/h
30.11.2020 06:00 3,1 C 72 % 1025,7 hPa 0,0 l/m 3,1 km/h N -1,4 C 3,1 C 11,7 km/h
30.11.2020 07:00 3,0 C 74 % 1026,2 hPa 0,0 l/m 1,1 km/h N -1,1 C 3,0 C 7,6 km/h
30.11.2020 08:00 2,9 C 77 % 1026,7 hPa 0,0 l/m 2,0 km/h N -0,8 C 2,9 C 8,4 km/h
30.11.2020 09:00 3,4 C 77 % 1027,1 hPa 0,0 l/m 1,2 km/h N -0,3 C 3,4 C 8,0 km/h
30.11.2020 10:00 3,9 C 76 % 1027,3 hPa 0,0 l/m 1,5 km/h N -0,0 C 3,9 C 6,8 km/h
30.11.2020 11:00 4,3 C 75 % 1027,0 hPa 0,0 l/m 0,4 km/h N 0,2 C 4,3 C 3,6 km/h
30.11.2020 12:00 4,8 C 73 % 1026,7 hPa 0,0 l/m 0,0 km/h N 0,3 C 4,8 C 0,4 km/h
30.11.2020 13:00 5,1 C 71 % 1026,0 hPa 0,0 l/m 0,0 km/h N 0,3 C 5,1 C 0,0 km/h
30.11.2020 14:00 5,3 C 70 % 1025,7 hPa 0,0 l/m 0,0 km/h N 0,3 C 5,3 C 0,0 km/h
30.11.2020 15:00 4,7 C 70 % 1025,4 hPa 0,0 l/m 0,0 km/h N -0,4 C 4,7 C 0,0 km/h
30.11.2020 16:00 3,1 C 73 % 1025,4 hPa 0,0 l/m 0,0 km/h N -1,3 C 3,1 C 0,0 km/h
30.11.2020 17:00 0,8 C 75 % 1025,4 hPa 0,0 l/m 0,0 km/h N -3,2 C 0,8 C 0,0 km/h
30.11.2020 18:00 -1,1 C 78 % 1025,4 hPa 0,0 l/m 0,0 km/h N -4,4 C -1,1 C 0,0 km/h
30.11.2020 19:00 -2,2 C 81 % 1025,2 hPa 0,0 l/m 0,0 km/h N -5,0 C -2,2 C 0,0 km/h
30.11.2020 20:00 -2,8 C 82 % 1024,9 hPa 0,0 l/m 0,0 km/h N -5,5 C -2,8 C 0,0 km/h
30.11.2020 21:00 -3,0 C 83 % 1024,5 hPa 0,0 l/m 0,0 km/h N -5,5 C -3,0 C 0,0 km/h
30.11.2020 22:00 -2,1 C 83 % 1024,2 hPa 0,0 l/m 0,0 km/h N -4,6 C -2,1 C 0,0 km/h
30.11.2020 23:00 -3,0 C 83 % 1023,7 hPa 0,0 l/m 0,0 km/h N -5,5 C -3,0 C 0,0 km/h
01.12.2020 00:00 -3,8 C 83 % 1023,0 hPa 0,0 l/m 0,0 km/h N -6,3 C -3,8 C 0,0 km/h
01.12.2020 01:00 -4,6 C 83 % 1022,5 hPa 0,0 l/m 0,0 km/h N -7,0 C -4,6 C 0,0 km/h
01.12.2020 02:00 -4,9 C 83 % 1022,2 hPa 0,0 l/m 0,0 km/h N -7,4 C -4,9 C 0,0 km/h
01.12.2020 03:00 -5,4 C 83 % 1021,8 hPa 0,0 l/m 0,0 km/h N -7,8 C -5,4 C 0,0 km/h
01.12.2020 04:00 -5,7 C 83 % 1021,6 hPa 0,0 l/m 0,0 km/h N -8,1 C -5,7 C 0,0 km/h
01.12.2020 05:00 -5,3 C 83 % 1021,3 hPa 0,0 l/m 0,0 km/h N -7,7 C -5,3 C 0,0 km/h
01.12.2020 06:00 -3,9 C 82 % 1021,0 hPa 0,0 l/m 0,0 km/h N -6,5 C -3,9 C 0,0 km/h
01.12.2020 07:00 -3,0 C 82 % 1020,9 hPa 0,0 l/m 0,0 km/h N -5,6 C -3,0 C 0,0 km/h
01.12.2020 08:00 -2,7 C 82 % 1020,9 hPa 0,0 l/m 0,0 km/h N -5,3 C -2,7 C 0,4 km/h
01.12.2020 09:00 -2,0 C 82 % 1020,7 hPa 0,0 l/m 0,0 km/h N -4,7 C -2,0 C 0,0 km/h
01.12.2020 10:00 -1,5 C 82 % 1020,5 hPa 0,0 l/m 0,0 km/h N -4,2 C -1,5 C 0,0 km/h
01.12.2020 11:00 -0,7 C 82 % 1019,8 hPa 0,0 l/m 0,0 km/h N -3,4 C -0,7 C 0,0 km/h
01.12.2020 12:00 0,4 C 82 % 1019,5 hPa 0,0 l/m 0,1 km/h N -2,3 C 0,4 C 2,4 km/h
01.12.2020 13:00 1,2 C 82 % 1019,3 hPa 0,0 l/m 0,1 km/h N -1,5 C 1,2 C 0,8 km/h
01.12.2020 14:00 1,2 C 83 % 1019,2 hPa 0,0 l/m 0,0 km/h N -1,5 C 1,2 C 2,4 km/h
01.12.2020 15:00 0,9 C 83 % 1019,3 hPa 0,0 l/m 0,0 km/h N -1,6 C 0,9 C 2,8 km/h
01.12.2020 16:00 0,3 C 83 % 1019,9 hPa 0,0 l/m 0,1 km/h N -2,2 C 0,3 C 2,8 km/h
01.12.2020 17:00 -0,4 C 83 % 1020,4 hPa 0,0 l/m 0,0 km/h N -2,9 C -0,4 C 2,4 km/h
01.12.2020 18:00 -0,9 C 83 % 1020,9 hPa 0,0 l/m 0,1 km/h N -3,4 C -0,9 C 2,0 km/h
01.12.2020 19:00 -1,2 C 83 % 1021,5 hPa 0,0 l/m 0,0 km/h N -3,7 C -1,2 C 1,2 km/h
01.12.2020 20:00 -1,5 C 83 % 1022,1 hPa 0,0 l/m 0,0 km/h N -4,0 C -1,5 C 0,4 km/h
01.12.2020 21:00 -2,5 C 83 % 1022,5 hPa 0,0 l/m 0,0 km/h N -5,0 C -2,5 C 0,0 km/h
01.12.2020 22:00 -2,8 C 83 % 1022,9 hPa 0,0 l/m 0,1 km/h N -5,2 C -2,8 C 1,2 km/h
01.12.2020 23:00 -3,1 C 83 % 1023,0 hPa 0,0 l/m 0,0 km/h N -5,6 C -3,1 C 0,8 km/h
02.12.2020 00:00 -2,8 C 83 % 1022,9 hPa 0,0 l/m 0,3 km/h N -5,2 C -2,8 C 3,6 km/h
02.12.2020 01:00 -2,7 C 83 % 1022,8 hPa 0,0 l/m 0,0 km/h N -5,2 C -2,7 C 0,0 km/h
02.12.2020 02:00 -2,8 C 83 % 1022,7 hPa 0,0 l/m 0,0 km/h N -5,3 C -2,8 C 0,0 km/h
02.12.2020 03:00 -2,7 C 83 % 1022,3 hPa 0,0 l/m 0,0 km/h N -5,1 C -2,7 C 0,4 km/h
02.12.2020 04:00 -2,3 C 83 % 1022,1 hPa 0,0 l/m 0,1 km/h N -4,8 C -2,3 C 1,6 km/h
02.12.2020 05:00 -2,1 C 83 % 1022,2 hPa 0,0 l/m 0,1 km/h N -4,6 C -2,1 C 3,2 km/h
02.12.2020 06:00 -2,2 C 83 % 1022,1 hPa 0,0 l/m 0,1 km/h N -4,7 C -2,2 C 3,2 km/h
02.12.2020 07:00 -2,3 C 83 % 1022,3 hPa 0,0 l/m 0,2 km/h N -4,8 C -2,3 C 4,4 km/h
02.12.2020 08:00 -2,4 C 83 % 1022,5 hPa 0,0 l/m 0,1 km/h N -4,9 C -2,4 C 3,2 km/h
02.12.2020 09:00 -2,0 C 83 % 1022,6 hPa 0,0 l/m 0,1 km/h N -4,5 C -2,0 C 3,6 km/h
02.12.2020 10:00 -2,0 C 83 % 1022,5 hPa 0,0 l/m 0,3 km/h N -4,5 C -2,0 C 5,2 km/h
02.12.2020 11:00 -1,5 C 83 % 1021,6 hPa 0,0 l/m 1,0 km/h N -4,0 C -1,5 C 6,4 km/h
02.12.2020 12:00 -1,3 C 83 % 1020,8 hPa 0,0 l/m 0,7 km/h N -3,8 C -1,3 C 5,6 km/h
02.12.2020 13:00 -1,0 C 83 % 1020,0 hPa 0,0 l/m 0,6 km/h N -3,5 C -1,0 C 5,2 km/h
02.12.2020 14:00 -1,2 C 83 % 1019,5 hPa 0,0 l/m 0,5 km/h N -3,7 C -1,2 C 6,0 km/h
02.12.2020 15:00 -1,4 C 83 % 1019,0 hPa 0,0 l/m 0,3 km/h N -3,9 C -1,4 C 3,6 km/h
02.12.2020 16:00 -1,4 C 83 % 1018,7 hPa 0,0 l/m 0,0 km/h N -3,9 C -1,4 C 1,2 km/h
02.12.2020 17:00 -1,7 C 83 % 1018,3 hPa 0,0 l/m 0,2 km/h N -4,2 C -1,7 C 4,4 km/h
02.12.2020 18:00 -1,5 C 83 % 1017,8 hPa 0,0 l/m 0,7 km/h N -4,0 C -1,5 C 5,2 km/h
02.12.2020 19:00 -1,5 C 83 % 1017,5 hPa 0,0 l/m 0,5 km/h N -4,0 C -1,5 C 4,0 km/h
02.12.2020 20:00 -1,5 C 83 % 1017,4 hPa 0,0 l/m 0,6 km/h N -4,0 C -1,5 C 5,2 km/h
02.12.2020 21:00 -1,4 C 83 % 1017,2 hPa 0,0 l/m 0,3 km/h N -3,9 C -1,4 C 4,4 km/h
02.12.2020 22:00 -1,3 C 83 % 1016,8 hPa 0,0 l/m 0,7 km/h N -3,8 C -1,3 C 5,6 km/h
02.12.2020 23:00 -1,1 C 83 % 1016,3 hPa 0,0 l/m 1,4 km/h N -3,7 C -1,1 C 7,6 km/h
03.12.2020 00:00 -1,1 C 83 % 1015,7 hPa 0,0 l/m 1,8 km/h N -3,6 C -1,1 C 8,4 km/h
03.12.2020 01:00 -1,1 C 83 % 1015,3 hPa 0,0 l/m 1,1 km/h N -3,6 C -1,1 C 6,0 km/h
03.12.2020 02:00 -1,1 C 83 % 1014,9 hPa 0,0 l/m 1,7 km/h N -3,6 C -1,1 C 6,8 km/h
03.12.2020 03:00 -1,2 C 83 % 1014,3 hPa 0,0 l/m 0,5 km/h N -3,7 C -1,2 C 4,0 km/h
03.12.2020 04:00 -1,3 C 83 % 1013,8 hPa 0,0 l/m 0,0 km/h N -3,8 C -1,3 C 2,4 km/h
03.12.2020 05:00 -1,2 C 83 % 1013,1 hPa 0,0 l/m 0,0 km/h N -3,7 C -1,2 C 1,2 km/h
03.12.2020 06:00 -1,3 C 83 % 1013,2 hPa 0,0 l/m 0,0 km/h N -3,8 C -1,3 C 0,0 km/h
03.12.2020 07:00 -1,3 C 83 % 1013,2 hPa 0,0 l/m 0,0 km/h N -3,8 C -1,3 C 0,0 km/h
03.12.2020 08:00 -1,3 C 83 % 1013,2 hPa 0,0 l/m 0,0 km/h N -3,8 C -1,3 C 0,0 km/h
03.12.2020 09:00 -0,9 C 82 % 1013,2 hPa 0,0 l/m 0,0 km/h N -3,6 C -0,9 C 0,0 km/h
03.12.2020 10:00 -0,6 C 82 % 1013,0 hPa 0,0 l/m 0,0 km/h N -3,3 C -0,6 C 0,0 km/h
03.12.2020 11:00 -0,2 C 82 % 1012,1 hPa 0,0 l/m 0,0 km/h N -2,9 C -0,2 C 0,0 km/h
03.12.2020 12:00 -0,2 C 82 % 1011,5 hPa 0,0 l/m 0,0 km/h N -2,9 C -0,2 C 0,0 km/h
03.12.2020 13:00 -0,1 C 82 % 1010,7 hPa 0,0 l/m 0,0 km/h N -2,8 C -0,1 C 0,4 km/h
03.12.2020 14:00 0,1 C 82 % 1009,8 hPa 0,0 l/m 0,0 km/h N -2,6 C 0,1 C 0,0 km/h
03.12.2020 15:00 -0,2 C 82 % 1009,6 hPa 0,0 l/m 0,0 km/h N -2,8 C -0,2 C 0,0 km/h
03.12.2020 16:00 -0,3 C 82 % 1009,1 hPa 0,0 l/m 0,0 km/h N -3,0 C -0,3 C 0,0 km/h
03.12.2020 17:00 -0,3 C 82 % 1008,9 hPa 0,0 l/m 0,0 km/h N -3,0 C -0,3 C 0,0 km/h
03.12.2020 18:00 -0,3 C 82 % 1008,6 hPa 0,0 l/m 0,0 km/h N -3,0 C -0,3 C 0,8 km/h
03.12.2020 19:00 -0,4 C 82 % 1008,1 hPa 0,0 l/m 0,0 km/h N -3,1 C -0,4 C 0,0 km/h
03.12.2020 20:00 -0,4 C 82 % 1007,0 hPa 0,0 l/m 0,0 km/h N -3,0 C -0,4 C 0,0 km/h
03.12.2020 21:00 -0,2 C 82 % 1006,6 hPa 0,0 l/m 0,0 km/h N -2,9 C -0,2 C 0,0 km/h
03.12.2020 22:00 -0,1 C 82 % 1005,7 hPa 0,0 l/m 0,1 km/h N -2,8 C -0,1 C 2,8 km/h
03.12.2020 23:00 -0,1 C 82 % 1004,9 hPa 0,0 l/m 0,0 km/h N -2,7 C -0,1 C 1,2 km/h
04.12.2020 00:00 0,1 C 82 % 1003,9 hPa 0,0 l/m 0,0 km/h N -2,6 C 0,1 C 0,8 km/h
04.12.2020 01:00 0,2 C 82 % 1003,0 hPa 0,0 l/m 0,0 km/h N -2,5 C 0,2 C 1,6 km/h
04.12.2020 02:00 0,2 C 82 % 1002,5 hPa 0,0 l/m 0,0 km/h N -2,5 C 0,2 C 0,8 km/h
04.12.2020 03:00 0,2 C 82 % 1002,2 hPa 0,0 l/m 0,0 km/h N -2,5 C 0,2 C 1,2 km/h
04.12.2020 04:00 0,2 C 82 % 1001,7 hPa 0,0 l/m 0,0 km/h N -2,5 C 0,2 C 1,2 km/h
04.12.2020 05:00 0,1 C 82 % 1001,7 hPa 0,0 l/m 0,0 km/h N -2,6 C 0,1 C 1,6 km/h
04.12.2020 06:00 -0,5 C 82 % 1001,4 hPa 0,0 l/m 0,0 km/h N -3,1 C -0,5 C 0,0 km/h
04.12.2020 07:00 -0,3 C 82 % 1000,9 hPa 0,0 l/m 0,4 km/h N -3,0 C -0,3 C 4,8 km/h
04.12.2020 08:00 -0,1 C 82 % 1001,2 hPa 0,0 l/m 0,6 km/h N -2,7 C -0,1 C 5,2 km/h
04.12.2020 09:00 0,7 C 82 % 1000,8 hPa 0,0 l/m 3,3 km/h N -2,0 C 0,7 C 9,3 km/h
04.12.2020 10:00 1,1 C 82 % 1000,8 hPa 0,0 l/m 4,1 km/h N -1,6 C 1,0 C 11,3 km/h
04.12.2020 11:00 1,5 C 83 % 1000,2 hPa 0,0 l/m 2,9 km/h N -1,2 C 1,5 C 10,9 km/h
04.12.2020 12:00 1,9 C 83 % 1000,6 hPa 0,0 l/m 1,5 km/h N -0,7 C 1,9 C 7,6 km/h
04.12.2020 13:00 2,5 C 83 % 1000,5 hPa 0,0 l/m 0,6 km/h N -0,1 C 2,5 C 7,2 km/h
04.12.2020 14:00 2,0 C 83 % 1000,5 hPa 0,3 l/m 0,4 km/h N -0,6 C 2,0 C 4,4 km/h
04.12.2020 15:00 1,3 C 83 % 1000,8 hPa 0,3 l/m 0,1 km/h N -1,3 C 1,3 C 1,2 km/h
04.12.2020 16:00 1,1 C 83 % 1000,9 hPa 0,0 l/m 0,0 km/h N -1,5 C 1,1 C 1,6 km/h
04.12.2020 17:00 1,3 C 83 % 1001,1 hPa 0,0 l/m 1,7 km/h N -1,3 C 1,3 C 7,5 km/h
04.12.2020 18:00 1,3 C 83 % 1001,5 hPa 0,0 l/m 0,0 km/h N -1,3 C 1,3 C 4,8 km/h
04.12.2020 19:00 1,3 C 83 % 1001,8 hPa 0,0 l/m 1,6 km/h N -1,3 C 1,3 C 8,4 km/h
04.12.2020 20:00 1,4 C 83 % 1001,8 hPa 0,3 l/m 0,7 km/h N -1,2 C 1,4 C 6,4 km/h
04.12.2020 21:00 1,9 C 83 % 1001,8 hPa 0,0 l/m 1,6 km/h N -0,7 C 1,9 C 7,6 km/h
04.12.2020 22:00 1,7 C 83 % 1002,3 hPa 0,0 l/m 0,6 km/h N -0,9 C 1,7 C 5,7 km/h
04.12.2020 23:00 2,7 C 83 % 1002,2 hPa 0,3 l/m 3,0 km/h N 0,1 C 2,7 C 16,5 km/h
05.12.2020 00:00 2,7 C 83 % 1002,8 hPa 0,0 l/m 2,9 km/h N 0,0 C 2,7 C 11,7 km/h
05.12.2020 01:00 2,3 C 83 % 1003,7 hPa 0,0 l/m 0,4 km/h N -0,3 C 2,3 C 4,0 km/h
05.12.2020 02:00 2,3 C 83 % 1004,1 hPa 0,3 l/m 0,0 km/h N -0,3 C 2,3 C 1,2 km/h
05.12.2020 03:00 2,7 C 83 % 1004,3 hPa 0,3 l/m 0,0 km/h N 0,1 C 2,7 C 0,8 km/h
05.12.2020 04:00 3,1 C 82 % 1004,4 hPa 0,5 l/m 0,0 km/h N 0,4 C 3,1 C 0,8 km/h
05.12.2020 05:00 3,3 C 82 % 1004,8 hPa 0,8 l/m 0,6 km/h N 0,6 C 3,3 C 6,4 km/h
05.12.2020 06:00 3,2 C 82 % 1004,9 hPa 0,8 l/m 1,2 km/h N 0,4 C 3,2 C 5,2 km/h
05.12.2020 07:00 3,1 C 82 % 1005,6 hPa 0,8 l/m 0,3 km/h N 0,3 C 3,1 C 4,8 km/h
05.12.2020 08:00 3,2 C 82 % 1005,4 hPa 0,8 l/m 2,8 km/h N 0,4 C 3,2 C 8,4 km/h
05.12.2020 09:00 3,8 C 82 % 1005,2 hPa 0,5 l/m 2,6 km/h N 1,1 C 3,8 C 9,6 km/h
05.12.2020 10:00 5,2 C 82 % 1005,8 hPa 0,8 l/m 0,1 km/h N 2,3 C 5,2 C 3,2 km/h
05.12.2020 11:00 6,8 C 82 % 1006,0 hPa 0,3 l/m 0,7 km/h N 3,9 C 6,8 C 7,6 km/h
05.12.2020 12:00 7,9 C 81 % 1005,9 hPa 0,0 l/m 0,7 km/h N 4,8 C 7,9 C 10,5 km/h
05.12.2020 13:00 8,5 C 79 % 1005,8 hPa 0,0 l/m 0,3 km/h N 5,0 C 8,5 C 6,0 km/h
05.12.2020 14:00 7,5 C 81 % 1006,5 hPa 0,0 l/m 1,1 km/h N 4,3 C 7,5 C 8,0 km/h
05.12.2020 15:00 6,4 C 82 % 1007,3 hPa 0,0 l/m 1,3 km/h N 3,6 C 6,4 C 10,4 km/h
05.12.2020 16:00 6,4 C 82 % 1007,4 hPa 0,0 l/m 0,1 km/h N 3,6 C 6,4 C 6,4 km/h
05.12.2020 17:00 6,9 C 82 % 1007,6 hPa 0,0 l/m 0,1 km/h N 4,0 C 6,9 C 4,0 km/h
05.12.2020 18:00 6,8 C 82 % 1007,8 hPa 0,0 l/m 0,0 km/h N 3,9 C 6,8 C 0,0 km/h
05.12.2020 19:00 6,7 C 82 % 1007,8 hPa 0,0 l/m 0,0 km/h N 3,8 C 6,7 C 0,0 km/h
05.12.2020 20:00 6,8 C 82 % 1007,7 hPa 0,0 l/m 0,0 km/h N 3,9 C 6,8 C 2,4 km/h
05.12.2020 21:00 6,9 C 82 % 1007,7 hPa 0,0 l/m 0,0 km/h N 4,1 C 6,9 C 1,2 km/h
05.12.2020 22:00 7,4 C 82 % 1007,3 hPa 0,0 l/m 0,1 km/h N 4,5 C 7,4 C 2,8 km/h
05.12.2020 23:00 7,4 C 82 % 1007,2 hPa 0,0 l/m 0,0 km/h N 4,5 C 7,4 C 2,0 km/h
06.12.2020 00:00 6,9 C 82 % 1006,9 hPa 0,0 l/m 0,0 km/h N 4,1 C 6,9 C 0,8 km/h
06.12.2020 01:00 6,6 C 82 % 1006,9 hPa 0,0 l/m 0,0 km/h N 3,8 C 6,6 C 0,0 km/h
06.12.2020 02:00 6,5 C 82 % 1007,1 hPa 0,0 l/m 0,1 km/h N 3,7 C 6,5 C 2,0 km/h
06.12.2020 03:00 6,4 C 82 % 1007,2 hPa 0,0 l/m 0,1 km/h N 3,5 C 6,4 C 1,2 km/h
06.12.2020 04:00 6,2 C 82 % 1007,0 hPa 0,0 l/m 0,0 km/h N 3,3 C 6,2 C 0,0 km/h
06.12.2020 05:00 5,6 C 82 % 1007,2 hPa 0,0 l/m 0,0 km/h N 2,7 C 5,6 C 0,0 km/h
06.12.2020 06:00 5,4 C 82 % 1007,4 hPa 0,0 l/m 0,0 km/h N 2,6 C 5,4 C 0,0 km/h
06.12.2020 07:00 5,1 C 82 % 1007,7 hPa 0,0 l/m 0,0 km/h N 2,3 C 5,1 C 0,0 km/h
06.12.2020 08:00 5,2 C 82 % 1007,7 hPa 0,0 l/m 0,0 km/h N 2,4 C 5,2 C 0,0 km/h
06.12.2020 09:00 6,0 C 82 % 1007,4 hPa 0,0 l/m 0,0 km/h N 3,1 C 6,0 C 0,0 km/h
06.12.2020 10:00 7,0 C 82 % 1007,3 hPa 0,0 l/m 0,0 km/h N 4,1 C 7,0 C 0,0 km/h
06.12.2020 11:00 7,7 C 82 % 1006,5 hPa 0,0 l/m 0,1 km/h N 4,7 C 7,7 C 2,4 km/h
06.12.2020 12:00 8,1 C 81 % 1006,0 hPa 0,0 l/m 0,0 km/h N 5,0 C 8,1 C 0,0 km/h
06.12.2020 13:00 8,3 C 81 % 1005,3 hPa 0,0 l/m 0,0 km/h N 5,2 C 8,3 C 0,0 km/h
06.12.2020 14:00 8,4 C 82 % 1004,9 hPa 0,0 l/m 0,0 km/h N 5,5 C 8,4 C 0,4 km/h
06.12.2020 15:00 8,5 C 82 % 1005,1 hPa 0,0 l/m 0,0 km/h N 5,6 C 8,5 C 2,0 km/h
06.12.2020 16:00 8,4 C 82 % 1004,7 hPa 0,0 l/m 0,0 km/h N 5,5 C 8,4 C 0,4 km/h
06.12.2020 17:00 8,5 C 82 % 1004,4 hPa 0,0 l/m 0,1 km/h N 5,6 C 8,5 C 2,4 km/h
06.12.2020 18:00 8,7 C 82 % 1004,0 hPa 0,0 l/m 0,0 km/h N 5,8 C 8,7 C 1,6 km/h
06.12.2020 19:00 8,6 C 82 % 1003,8 hPa 0,0 l/m 0,0 km/h N 5,7 C 8,6 C 0,4 km/h
06.12.2020 20:00 8,3 C 82 % 1003,6 hPa 0,0 l/m 0,0 km/h N 5,4 C 8,3 C 0,0 km/h
06.12.2020 21:00 8,0 C 82 % 1003,1 hPa 0,0 l/m 0,0 km/h N 5,1 C 8,0 C 0,4 km/h
06.12.2020 22:00 7,7 C 82 % 1002,5 hPa 0,0 l/m 0,3 km/h N 4,8 C 7,7 C 3,2 km/h
06.12.2020 23:00 7,6 C 82 % 1002,1 hPa 0,0 l/m 0,2 km/h N 4,7 C 7,6 C 4,8 km/h
Min-Datum _ 01.12.20 30.11.20 04.12.20 - 30.11.20 - 01.12.20 01.12.20 30.11.20
_ Min-Zeit 04:15 15:00 11:00 - 04:15 - 04:15 04:15 04:15
Minimum _ -5,7 C 69 % 1000,1 hPa - 0,0 km/h - -8,1 C -5,7 C 0,0 km/h
Max-Datum _ 06.12.20 30.11.20 30.11.20 05.12.20 04.12.20 - 06.12.20 06.12.20 04.12.20
_ Max-Zeit 18:00 21:00 10:15 05:00 10:45 - 18:00 18:00 23:45
Maximum _ 8,7 C 83 % 1027,4 hPa 0,8 l/m 6,8 km/h
N
- 5,8 C 8,7 C 22,5 km/h
N
Durchschnitt _ 1,6 C 81 % 1013,0 hPa #6,8 l/m 0,4 km/h N -1,3 C 1,6 C 3,1 km/h